Time;durP1;ratioP1;P1;durP2;ratioP2;P2;SDS_P1;SDS_P2;PMS_P1;PMS_P2;Temp;Humidity;BMP_temperature;BMP_pressure;BME280_temperature;BME280_humidity;BME280_pressure;Samples;Min_cycle;Max_cycle;Signal;HPM_P1;HPM_P2
2021/08/11 00:01:32;;;;;;;1.90;1.70;;;15.10;93.10;;;;;;5077386;28;20496;-88
2021/08/11 00:03:58;;;;;;;1.52;1.30;;;15.10;93.20;;;;;;5059601;28;20031;-88
2021/08/11 00:06:23;;;;;;;2.00;1.67;;;15.10;93.20;;;;;;5059223;28;20025;-88
2021/08/11 00:08:49;;;;;;;2.55;1.63;;;15.10;93.20;;;;;;5059373;28;20029;-89
2021/08/11 00:11:15;;;;;;;2.22;1.70;;;15.10;93.20;;;;;;5077096;28;20028;-88
2021/08/11 00:13:40;;;;;;;2.85;2.10;;;15.10;93.40;;;;;;5077103;28;20028;-87
2021/08/11 00:16:06;;;;;;;3.10;1.83;;;15.10;93.20;;;;;;5076998;28;20052;-88
2021/08/11 00:18:32;;;;;;;2.38;1.55;;;15.10;93.10;;;;;;5077311;28;20024;-88
2021/08/11 00:20:57;;;;;;;3.00;1.80;;;15.10;93.10;;;;;;5076554;28;20029;-88
2021/08/11 00:23:25;;;;;;;2.05;1.65;;;15.10;93.10;;;;;;5059027;28;20025;-88
2021/08/11 00:25:53;;;;;;;2.28;1.95;;;15.00;93.10;;;;;;5077086;28;20082;-88
2021/08/11 00:28:23;;;;;;;2.17;1.98;;;15.00;93.10;;;;;;5078922;28;20077;-89
2021/08/11 00:30:49;;;;;;;2.78;2.13;;;15.00;93.20;;;;;;5077055;28;20016;-89
2021/08/11 00:33:14;;;;;;;3.72;2.40;;;14.90;93.20;;;;;;5077103;28;20070;-88
2021/08/11 00:35:40;;;;;;;2.35;1.70;;;14.90;93.30;;;;;;5076510;28;20024;-89
2021/08/11 00:38:06;;;;;;;3.08;1.65;;;14.90;93.30;;;;;;5076839;28;20389;-88
2021/08/11 00:40:32;;;;;;;3.25;2.10;;;14.80;93.40;;;;;;5076777;28;20041;-88
2021/08/11 00:42:58;;;;;;;3.10;2.00;;;14.80;93.40;;;;;;5076554;28;20024;-88
2021/08/11 00:45:24;;;;;;;3.05;1.70;;;14.80;93.40;;;;;;5076735;28;20103;-89
2021/08/11 00:47:54;;;;;;;2.53;1.88;;;14.90;93.40;;;;;;5075417;28;20492;-89
2021/08/11 00:50:20;;;;;;;2.83;2.10;;;14.90;93.30;;;;;;5076100;28;20025;-87
2021/08/11 00:52:47;;;;;;;2.55;2.00;;;14.90;93.30;;;;;;5058655;28;20171;-88
2021/08/11 00:55:14;;;;;;;3.22;2.00;;;14.80;93.20;;;;;;5076489;28;20017;-88
2021/08/11 00:57:41;;;;;;;3.13;2.15;;;14.80;93.20;;;;;;5076408;28;20105;-88
2021/08/11 01:00:07;;;;;;;3.00;2.10;;;14.80;93.20;;;;;;5076124;28;20485;-89
2021/08/11 01:02:33;;;;;;;2.78;1.92;;;14.80;93.20;;;;;;5076715;28;20124;-88
2021/08/11 01:05:01;;;;;;;1.85;1.40;;;14.80;93.20;;;;;;5058325;28;20084;-88
2021/08/11 01:07:28;;;;;;;1.98;1.50;;;14.90;93.20;;;;;;5076252;28;20070;-89
2021/08/11 01:09:54;;;;;;;2.95;2.00;;;14.90;93.10;;;;;;5076042;28;20473;-87
2021/08/11 01:12:24;;;;;;;2.80;1.95;;;14.90;93.10;;;;;;5076032;28;20019;-88
2021/08/11 01:14:51;;;;;;;2.85;1.92;;;14.90;93.00;;;;;;5058365;28;20063;-89
2021/08/11 01:17:17;;;;;;;1.88;1.67;;;14.90;93.10;;;;;;5058152;28;20038;-88
2021/08/11 01:19:42;;;;;;;2.45;1.80;;;14.90;93.10;;;;;;5075521;28;20501;-88
2021/08/11 01:22:18;;;;;;;2.95;1.80;;;14.90;93.10;;;;;;5076016;28;20051;-88
2021/08/11 01:25:12;;;;;;;3.35;2.13;;;14.90;93.10;;;;;;5075909;28;20036;-88
2021/08/11 01:28:22;;;;;;;3.55;2.55;;;14.90;93.00;;;;;;5075720;28;20115;-88
2021/08/11 01:30:49;;;;;;;3.83;2.08;;;14.80;93.10;;;;;;5044275;28;20075;-88
2021/08/11 01:33:33;;;;;;;3.88;2.60;;;14.80;93.20;;;;;;5057624;28;20024;-89
2021/08/11 01:36:10;;;;;;;3.88;2.15;;;14.80;93.10;;;;;;5075556;28;20116;-88
2021/08/11 01:38:43;;;;;;;3.13;1.95;;;14.80;93.10;;;;;;5075491;28;20028;-89
2021/08/11 01:41:11;;;;;;;1.98;1.77;;;14.80;93.10;;;;;;5057235;28;20090;-89
2021/08/11 01:43:41;;;;;;;3.03;2.10;;;14.80;93.10;;;;;;5075364;28;20112;-90
2021/08/11 01:46:09;;;;;;;4.03;2.65;;;14.80;93.10;;;;;;5075414;28;20023;-89
2021/08/11 01:48:37;;;;;;;2.55;2.10;;;14.80;93.10;;;;;;5074935;28;20029;-88
2021/08/11 01:51:03;;;;;;;3.47;2.10;;;14.80;93.10;;;;;;5075354;28;20025;-88
2021/08/11 01:53:31;;;;;;;3.08;2.20;;;14.80;93.10;;;;;;5075365;28;20441;-88
2021/08/11 01:55:58;;;;;;;2.03;1.75;;;14.80;93.10;;;;;;5075196;28;20025;-90
2021/08/11 01:58:24;;;;;;;3.40;2.15;;;14.90;93.10;;;;;;5074937;28;20111;-89
2021/08/11 02:00:51;;;;;;;2.95;2.58;;;14.80;93.10;;;;;;5074963;28;20028;-88
2021/08/11 02:03:24;;;;;;;3.00;2.17;;;14.80;93.10;;;;;;5074281;28;20055;-88
2021/08/11 02:05:51;;;;;;;2.92;1.90;;;14.80;93.10;;;;;;5075268;28;20043;-88
2021/08/11 02:08:18;;;;;;;4.45;2.72;;;14.80;93.10;;;;;;5074967;28;20099;-89
2021/08/11 02:10:45;;;;;;;3.95;2.70;;;14.80;93.10;;;;;;5057023;28;20377;-89
2021/08/11 02:13:10;;;;;;;4.55;2.88;;;14.70;93.10;;;;;;5074711;28;20016;-88
2021/08/11 02:15:37;;;;;;;4.10;2.47;;;14.70;93.20;;;;;;5074873;28;20023;-89
2021/08/11 02:18:03;;;;;;;4.88;2.88;;;14.70;93.30;;;;;;5056534;28;20025;-89
2021/08/11 02:20:29;;;;;;;4.80;3.22;;;14.60;93.30;;;;;;5074524;28;20564;-88
2021/08/11 02:22:55;;;;;;;3.38;2.53;;;14.60;93.40;;;;;;5074856;28;20041;-88
2021/08/11 02:25:21;;;;;;;6.22;3.03;;;14.60;93.40;;;;;;5075684;28;20024;-89
2021/08/11 02:28:07;;;;;;;3.28;2.40;;;14.60;93.40;;;;;;5074550;28;20061;-88
2021/08/11 02:30:44;;;;;;;3.08;2.17;;;14.60;93.30;;;;;;5074567;28;20027;-88
2021/08/11 02:33:31;;;;;;;5.20;3.20;;;14.60;93.30;;;;;;5056287;28;20017;-89
2021/08/11 02:36:27;;;;;;;3.35;2.28;;;14.60;93.20;;;;;;5074958;28;20016;-89
2021/08/11 02:38:58;;;;;;;3.88;2.30;;;14.50;93.20;;;;;;5074389;28;20112;-88
2021/08/11 02:41:31;;;;;;;3.65;2.78;;;14.50;93.20;;;;;;5056552;28;20025;-89
2021/08/11 02:44:13;;;;;;;4.55;3.13;;;14.50;93.20;;;;;;5056674;28;20028;-88
2021/08/11 02:46:42;;;;;;;4.00;2.55;;;14.40;93.20;;;;;;5074074;28;20089;-88
2021/08/11 02:49:12;;;;;;;2.65;2.30;;;14.40;93.30;;;;;;5056567;28;20063;-90
2021/08/11 02:51:38;;;;;;;2.78;2.00;;;14.50;93.30;;;;;;5074637;28;20048;-90
2021/08/11 02:54:11;;;;;;;3.58;2.58;;;14.50;93.30;;;;;;5056092;28;20469;-90
2021/08/11 02:56:41;;;;;;;3.92;2.72;;;14.40;93.20;;;;;;5056736;28;20020;-89
2021/08/11 02:59:07;;;;;;;4.82;2.83;;;14.40;93.30;;;;;;5056567;28;20028;-89
2021/08/11 03:01:34;;;;;;;4.35;3.08;;;14.40;93.30;;;;;;5056193;28;20386;-89
2021/08/11 03:03:59;;;;;;;3.13;2.22;;;14.40;93.30;;;;;;5056657;28;20013;-89
2021/08/11 03:06:25;;;;;;;3.67;2.45;;;14.40;93.20;;;;;;5056517;28;20106;-88
2021/08/11 03:08:51;;;;;;;3.60;2.65;;;14.50;93.30;;;;;;5073390;28;20023;-88
2021/08/11 03:11:18;;;;;;;3.83;2.50;;;14.50;93.20;;;;;;5074420;28;20040;-90
2021/08/11 03:13:45;;;;;;;2.05;1.83;;;14.50;93.20;;;;;;5074432;28;20017;-90
2021/08/11 03:16:11;;;;;;;3.08;2.25;;;14.60;93.20;;;;;;5073972;28;20028;-90
2021/08/11 03:18:37;;;;;;;3.03;2.10;;;14.60;93.10;;;;;;5074260;28;20032;-91
2021/08/11 03:21:03;;;;;;;3.15;2.22;;;14.70;93.10;;;;;;5074058;28;20033;-90
2021/08/11 03:23:28;;;;;;;2.15;1.88;;;14.80;93.10;;;;;;5074380;28;20040;-91
2021/08/11 03:25:54;;;;;;;3.15;1.95;;;14.80;93.10;;;;;;5056287;28;20024;-90
2021/08/11 03:28:19;;;;;;;2.58;2.33;;;14.90;93.00;;;;;;5056459;28;20367;-89
2021/08/11 03:30:45;;;;;;;3.35;2.47;;;14.90;93.00;;;;;;5073746;28;20021;-90
2021/08/11 03:33:10;;;;;;;2.75;2.30;;;14.90;93.10;;;;;;5074025;28;20508;-90
2021/08/11 03:35:36;;;;;;;4.88;2.97;;;14.90;93.10;;;;;;5074047;28;20024;-91
2021/08/11 03:38:02;;;;;;;2.72;2.03;;;14.90;93.10;;;;;;5074496;28;20013;-90
2021/08/11 03:40:28;;;;;;;3.17;1.90;;;14.90;93.20;;;;;;5073874;28;20089;-89
2021/08/11 03:42:53;;;;;;;2.90;1.92;;;14.90;93.20;;;;;;5074153;28;20473;-90
2021/08/11 03:45:19;;;;;;;2.67;1.90;;;14.90;93.20;;;;;;5073454;28;20029;-90
2021/08/11 03:47:45;;;;;;;2.58;1.75;;;14.90;93.10;;;;;;5073929;28;20020;-90
2021/08/11 03:50:15;;;;;;;3.03;1.80;;;15.00;93.10;;;;;;5073927;28;20020;-91
2021/08/11 03:52:42;;;;;;;2.15;1.75;;;15.00;93.10;;;;;;5073754;28;20488;-90
2021/08/11 03:55:09;;;;;;;3.33;2.08;;;15.00;93.10;;;;;;5074050;28;20020;-91
2021/08/11 03:57:34;;;;;;;2.67;2.08;;;15.00;93.10;;;;;;5073826;28;20024;-90
2021/08/11 04:00:00;;;;;;;2.92;2.10;;;15.00;93.10;;;;;;5073301;28;20086;-90
2021/08/11 04:02:25;;;;;;;3.22;2.13;;;15.00;93.10;;;;;;5073735;28;20025;-91
2021/08/11 04:04:51;;;;;;;2.67;2.33;;;15.00;93.10;;;;;;5075873;28;20586;-90
2021/08/11 04:07:16;;;;;;;3.42;2.03;;;15.00;93.20;;;;;;5077521;28;20504;-91
2021/08/11 04:09:42;;;;;;;4.15;2.55;;;15.00;93.20;;;;;;5077501;28;20035;-91
2021/08/11 04:12:08;;;;;;;3.42;2.10;;;14.90;93.10;;;;;;5077328;28;20021;-91
2021/08/11 04:14:33;;;;;;;2.13;1.63;;;14.90;93.10;;;;;;5059051;28;20028;-91
2021/08/11 04:16:59;;;;;;;3.35;2.20;;;14.90;93.10;;;;;;5078000;28;20064;-90
2021/08/11 04:19:24;;;;;;;3.50;2.00;;;15.00;93.10;;;;;;5078443;28;20085;-90
2021/08/11 04:21:50;;;;;;;2.60;2.03;;;15.00;93.00;;;;;;5077172;28;20044;-90
2021/08/11 04:24:15;;;;;;;2.92;2.42;;;15.00;93.00;;;;;;5077287;28;20025;-90
2021/08/11 04:26:41;;;;;;;2.95;1.88;;;15.10;93.00;;;;;;5059235;28;20017;-91
2021/08/11 04:29:06;;;;;;;2.88;2.03;;;15.10;93.00;;;;;;5076659;28;20469;-90
2021/08/11 04:31:32;;;;;;;3.50;2.33;;;15.20;93.00;;;;;;5077029;28;20039;-91
2021/08/11 04:33:57;;;;;;;2.35;1.60;;;15.20;92.90;;;;;;5076946;28;20022;-91
2021/08/11 04:36:23;;;;;;;2.75;1.58;;;15.30;92.90;;;;;;5059222;28;20023;-91
2021/08/11 04:38:48;;;;;;;2.67;1.77;;;15.30;92.90;;;;;;5059336;28;20442;-92
2021/08/11 04:41:14;;;;;;;3.08;2.22;;;15.40;92.90;;;;;;5076950;28;20028;-90
2021/08/11 04:43:40;;;;;;;2.75;1.90;;;15.40;92.90;;;;;;5076399;28;20024;-91
2021/08/11 04:46:06;;;;;;;2.88;1.90;;;15.40;92.90;;;;;;5076674;28;20476;-91
2021/08/11 04:48:32;;;;;;;3.00;1.65;;;15.50;92.90;;;;;;5076703;28;20032;-90
2021/08/11 04:50:58;;;;;;;2.55;1.85;;;15.50;92.90;;;;;;5058634;28;20016;-90
2021/08/11 04:53:23;;;;;;;2.20;1.70;;;15.40;92.90;;;;;;5076460;28;20027;-90
2021/08/11 04:55:51;;;;;;;2.17;1.50;;;15.40;93.00;;;;;;5058532;28;20051;-90
2021/08/11 04:58:17;;;;;;;2.17;1.60;;;15.40;93.00;;;;;;5076188;28;20554;-91
2021/08/11 05:00:43;;;;;;;2.72;1.55;;;15.40;93.00;;;;;;5076254;28;20117;-91
2021/08/11 05:03:09;;;;;;;1.77;1.40;;;15.40;93.00;;;;;;5076362;28;20466;-91
2021/08/11 05:05:38;;;;;;;1.23;1.10;;;15.50;93.00;;;;;;5076564;28;20048;-90
2021/08/11 05:08:04;;;;;;;2.90;1.75;;;15.60;93.20;;;;;;5077618;28;20017;-90
2021/08/11 05:10:29;;;;;;;2.13;1.42;;;15.60;92.90;;;;;;5059821;28;20029;-90
2021/08/11 05:12:55;;;;;;;2.28;1.63;;;15.60;92.90;;;;;;5076534;28;20039;-90
2021/08/11 05:15:20;;;;;;;1.58;1.40;;;15.70;92.90;;;;;;5057817;28;20393;-90
2021/08/11 05:17:46;;;;;;;2.42;1.50;;;15.70;92.90;;;;;;5076048;28;20048;-90
2021/08/11 05:20:15;;;;;;;3.03;1.60;;;15.70;92.90;;;;;;5076318;28;20032;-89
2021/08/11 05:22:40;;;;;;;1.10;1.00;;;15.80;92.90;;;;;;5076072;28;20056;-91
2021/08/11 05:25:06;;;;;;;1.85;1.23;;;15.80;92.90;;;;;;5060743;28;20389;-91
2021/08/11 05:27:32;;;;;;;1.48;1.10;;;15.80;92.90;;;;;;5076682;28;20024;-91
2021/08/11 05:29:57;;;;;;;1.98;1.48;;;15.90;92.80;;;;;;5082040;28;20095;-91
2021/08/11 05:32:23;;;;;;;1.73;1.25;;;15.90;92.80;;;;;;5059420;28;20443;-91
2021/08/11 05:34:49;;;;;;;1.17;1.08;;;16.00;92.80;;;;;;5076177;28;20032;-92
2021/08/11 05:37:14;;;;;;;1.30;1.20;;;16.00;92.70;;;;;;5075791;28;20054;-91
2021/08/11 05:39:40;;;;;;;1.20;1.10;;;16.10;92.80;;;;;;5075251;28;20029;-91
2021/08/11 05:42:06;;;;;;;2.78;1.20;;;16.10;92.80;;;;;;5075411;28;20025;-91
2021/08/11 05:44:33;;;;;;;1.77;1.60;;;16.10;92.80;;;;;;5075651;28;20021;-91
2021/08/11 05:47:01;;;;;;;1.70;1.30;;;16.10;92.80;;;;;;5075641;28;20034;-89
2021/08/11 05:49:27;;;;;;;4.35;1.88;;;16.10;92.80;;;;;;5075405;28;20082;-91
2021/08/11 05:51:52;;;;;;;1.98;1.50;;;16.20;92.80;;;;;;5057876;28;20533;-91
2021/08/11 05:54:18;;;;;;;2.67;1.60;;;16.30;92.70;;;;;;5075119;28;20044;-91
2021/08/11 05:56:43;;;;;;;3.33;2.20;;;16.30;92.70;;;;;;5057721;28;20099;-91
2021/08/11 05:59:09;;;;;;;3.50;1.80;;;16.30;92.70;;;;;;5075220;28;20393;-91
2021/08/11 06:01:34;;;;;;;2.72;1.65;;;16.20;92.70;;;;;;5057673;28;20066;-91
2021/08/11 06:04:01;;;;;;;2.30;1.55;;;16.20;92.70;;;;;;5075252;28;20114;-89
2021/08/11 06:06:27;;;;;;;2.22;1.50;;;16.10;92.70;;;;;;5075058;28;20389;-90
2021/08/11 06:08:54;;;;;;;1.40;1.17;;;16.10;92.70;;;;;;5074725;28;20498;-89
2021/08/11 06:11:20;;;;;;;1.48;1.25;;;16.10;92.80;;;;;;5075292;28;20024;-90
2021/08/11 06:13:46;;;;;;;1.70;1.38;;;16.20;92.80;;;;;;5075175;28;20043;-90
2021/08/11 06:16:11;;;;;;;1.27;1.08;;;16.20;92.80;;;;;;5075039;28;20096;-90
2021/08/11 06:18:37;;;;;;;1.15;1.00;;;16.20;92.70;;;;;;5074903;28;20078;-90
2021/08/11 06:21:03;;;;;;;1.42;1.27;;;16.30;92.70;;;;;;5074569;28;20037;-88
2021/08/11 06:23:29;;;;;;;1.63;0.98;;;16.30;92.70;;;;;;5074444;28;20028;-91
2021/08/11 06:25:55;;;;;;;1.27;1.00;;;16.30;92.70;;;;;;5074735;28;20485;-91
2021/08/11 06:28:21;;;;;;;2.13;1.10;;;16.40;92.70;;;;;;5074787;28;20029;-92
2021/08/11 06:30:46;;;;;;;1.13;1.08;;;16.40;92.70;;;;;;5075041;28;20021;-92
2021/08/11 06:33:12;;;;;;;1.85;1.45;;;16.40;92.70;;;;;;5074643;28;20044;-90
2021/08/11 06:35:37;;;;;;;0.80;0.80;;;16.50;92.70;;;;;;5074753;28;20377;-91
2021/08/11 06:38:03;;;;;;;1.30;1.20;;;16.50;92.60;;;;;;5056678;28;20016;-91
2021/08/11 06:40:29;;;;;;;1.23;1.10;;;16.60;92.70;;;;;;5074606;28;20037;-90
2021/08/11 06:42:54;;;;;;;1.65;1.30;;;16.60;92.70;;;;;;5074894;28;20021;-91
2021/08/11 06:45:20;;;;;;;1.55;1.40;;;16.70;92.70;;;;;;5074464;28;20028;-91
2021/08/11 06:47:46;;;;;;;2.03;1.60;;;16.70;92.70;;;;;;5074672;28;20450;-91
2021/08/11 06:50:13;;;;;;;1.80;1.45;;;16.70;92.70;;;;;;5056694;28;20050;-91
2021/08/11 06:52:38;;;;;;;2.50;1.92;;;16.80;92.70;;;;;;5074722;28;20092;-92
2021/08/11 06:55:07;;;;;;;1.83;1.42;;;16.80;92.70;;;;;;5074595;28;20059;-90
2021/08/11 06:57:32;;;;;;;2.58;1.50;;;16.90;92.60;;;;;;5074615;28;20069;-91
2021/08/11 06:59:58;;;;;;;2.33;1.73;;;16.90;92.60;;;;;;5074275;28;20044;-91
2021/08/11 07:02:24;;;;;;;1.85;1.50;;;17.00;92.60;;;;;;5074369;28;20028;-90
2021/08/11 07:04:49;;;;;;;1.83;1.73;;;17.00;92.60;;;;;;5074599;28;20025;-90
2021/08/11 07:07:15;;;;;;;1.77;1.27;;;17.10;92.90;;;;;;5074221;28;20016;-90
2021/08/11 07:09:40;;;;;;;1.73;1.20;;;17.20;92.60;;;;;;5074719;28;20108;-91
2021/08/11 07:12:06;;;;;;;2.55;1.77;;;17.20;92.60;;;;;;5074740;28;20103;-89
2021/08/11 07:14:32;;;;;;;2.60;1.73;;;17.30;92.60;;;;;;5074197;28;20029;-90
2021/08/11 07:16:57;;;;;;;3.47;2.45;;;17.30;92.60;;;;;;5074275;28;20095;-91
2021/08/11 07:19:23;;;;;;;3.85;2.05;;;17.30;92.50;;;;;;5074619;28;20081;-87
2021/08/11 07:21:48;;;;;;;3.00;2.15;;;17.40;92.60;;;;;;5073671;28;20556;-90
2021/08/11 07:24:14;;;;;;;2.80;2.45;;;17.50;92.50;;;;;;5074893;28;20489;-89
2021/08/11 07:26:40;;;;;;;3.88;2.50;;;17.60;92.50;;;;;;5076064;28;20488;-89
2021/08/11 07:29:08;;;;;;;2.95;2.22;;;17.70;92.50;;;;;;5074687;28;20473;-88
2021/08/11 07:31:33;;;;;;;2.92;2.05;;;17.80;92.50;;;;;;5075909;28;20017;-89
2021/08/11 07:33:59;;;;;;;3.33;2.58;;;17.80;92.40;;;;;;5075356;28;20370;-89
2021/08/11 07:36:25;;;;;;;3.10;2.08;;;17.90;92.40;;;;;;5074854;28;20049;-89
2021/08/11 07:38:50;;;;;;;2.80;2.22;;;18.00;92.40;;;;;;5074835;28;20477;-87
2021/08/11 07:41:16;;;;;;;2.35;1.67;;;18.10;92.40;;;;;;5060111;28;20028;-88
2021/08/11 07:43:41;;;;;;;2.88;2.10;;;18.10;92.40;;;;;;5077914;28;20029;-89
2021/08/11 07:46:07;;;;;;;2.88;2.20;;;18.20;92.40;;;;;;5077379;28;20066;-88
2021/08/11 07:48:32;;;;;;;2.78;1.85;;;18.30;92.40;;;;;;5077695;28;20044;-88
2021/08/11 07:50:58;;;;;;;3.42;2.17;;;18.30;92.30;;;;;;5059756;28;20027;-88
2021/08/11 07:53:23;;;;;;;2.97;1.92;;;18.40;92.40;;;;;;5077172;28;20036;-84
2021/08/11 07:55:49;;;;;;;2.85;2.20;;;18.40;92.30;;;;;;5077730;28;20070;-88
2021/08/11 07:58:14;;;;;;;2.92;2.03;;;18.40;92.30;;;;;;5077735;28;20465;-88
2021/08/11 08:00:40;;;;;;;3.65;2.22;;;18.40;92.40;;;;;;5077496;28;20035;-88
2021/08/11 08:03:06;;;;;;;4.75;2.50;;;18.50;92.30;;;;;;5078638;28;20028;-89
2021/08/11 08:05:31;;;;;;;2.63;1.75;;;18.50;92.30;;;;;;5077372;28;20021;-89
2021/08/11 08:07:57;;;;;;;3.28;2.40;;;18.60;92.30;;;;;;5059532;28;20021;-85
2021/08/11 08:10:22;;;;;;;3.17;2.15;;;18.70;92.20;;;;;;5077156;28;20021;-87
2021/08/11 08:12:48;;;;;;;4.95;2.45;;;18.90;92.20;;;;;;5076800;28;20044;-88
2021/08/11 08:15:15;;;;;;;2.95;2.05;;;19.00;92.10;;;;;;5077043;28;20024;-86
2021/08/11 08:17:42;;;;;;;2.53;1.83;;;19.10;92.10;;;;;;5059483;28;20024;-87
2021/08/11 08:20:08;;;;;;;2.22;1.83;;;19.20;92.10;;;;;;5076446;28;20033;-87
2021/08/11 08:22:34;;;;;;;3.25;1.92;;;19.30;92.00;;;;;;5077047;28;20098;-86
2021/08/11 08:24:59;;;;;;;2.75;2.13;;;19.50;92.20;;;;;;5077292;28;20029;-86
2021/08/11 08:27:25;;;;;;;2.72;1.70;;;19.50;91.90;;;;;;5077267;28;20077;-88
2021/08/11 08:29:51;;;;;;;3.40;1.90;;;19.70;91.80;;;;;;5077730;28;20052;-88
2021/08/11 08:32:17;;;;;;;2.25;1.75;;;19.80;91.80;;;;;;5077145;28;20078;-87
2021/08/11 08:34:43;;;;;;;2.08;1.73;;;19.80;91.80;;;;;;5076885;28;20107;-87
2021/08/11 08:37:09;;;;;;;3.42;2.17;;;19.90;91.80;;;;;;5077300;28;20492;-89
2021/08/11 08:39:34;;;;;;;3.22;2.13;;;20.00;91.80;;;;;;5077606;28;20052;-88
2021/08/11 08:42:00;;;;;;;2.55;1.75;;;20.10;91.70;;;;;;5077039;28;20105;-87
2021/08/11 08:44:27;;;;;;;3.33;2.45;;;20.30;91.60;;;;;;5076663;28;20019;-84
2021/08/11 08:46:55;;;;;;;4.30;2.78;;;20.50;91.50;;;;;;5076661;28;20024;-86
2021/08/11 08:49:21;;;;;;;3.15;2.20;;;20.60;91.50;;;;;;5076256;28;20017;-87
2021/08/11 08:51:49;;;;;;;3.60;2.55;;;20.60;91.50;;;;;;5074983;28;20108;-85
2021/08/11 08:54:22;;;;;;;3.63;2.60;;;20.70;91.50;;;;;;5076333;28;20017;-87
2021/08/11 08:56:47;;;;;;;3.70;2.25;;;20.80;91.40;;;;;;5076684;28;20066;-85
2021/08/11 08:59:13;;;;;;;2.90;2.13;;;20.90;91.40;;;;;;5076031;28;20032;-87
2021/08/11 09:01:39;;;;;;;3.25;2.25;;;21.00;91.30;;;;;;5076133;28;20055;-86
2021/08/11 09:04:04;;;;;;;3.42;2.42;;;21.10;91.40;;;;;;5075380;28;20539;-86
2021/08/11 09:06:34;;;;;;;3.45;2.38;;;21.10;91.40;;;;;;5058722;28;20025;-87
2021/08/11 09:09:10;;;;;;;2.90;2.17;;;21.00;91.40;;;;;;5076010;28;20021;-86
2021/08/11 09:11:38;;;;;;;3.33;2.05;;;21.00;91.50;;;;;;5076284;28;20024;-87
2021/08/11 09:14:25;;;;;;;3.42;2.22;;;20.90;91.50;;;;;;5059973;28;20460;-87
2021/08/11 09:16:53;;;;;;;3.35;2.30;;;20.90;91.60;;;;;;5057949;28;20448;-88
2021/08/11 09:19:20;;;;;;;3.58;2.53;;;20.90;91.60;;;;;;5075906;28;20029;-86
2021/08/11 09:22:00;;;;;;;3.05;2.60;;;20.80;91.60;;;;;;5075876;28;20047;-87
2021/08/11 09:24:26;;;;;;;4.38;2.35;;;20.80;91.60;;;;;;5077064;28;20086;-87
2021/08/11 09:26:54;;;;;;;2.85;2.25;;;20.70;91.80;;;;;;5076894;28;20032;-87
2021/08/11 09:29:20;;;;;;;2.83;2.17;;;20.70;91.80;;;;;;5076553;28;20520;-87
2021/08/11 09:31:46;;;;;;;3.28;2.17;;;20.90;91.70;;;;;;5057830;28;20415;-86
2021/08/11 09:34:12;;;;;;;3.55;2.38;;;20.90;91.60;;;;;;5076558;28;20048;-87
2021/08/11 09:36:48;;;;;;;3.35;2.30;;;20.90;91.60;;;;;;5076037;28;20016;-87
2021/08/11 09:39:14;;;;;;;3.15;2.10;;;20.90;91.60;;;;;;5075488;28;20036;-86
2021/08/11 09:42:05;;;;;;;3.17;1.98;;;20.90;91.60;;;;;;5075745;28;20108;-86
2021/08/11 09:44:31;;;;;;;3.25;2.00;;;20.90;91.60;;;;;;5058472;28;20234;-87
2021/08/11 09:47:13;;;;;;;3.25;2.20;;;20.90;91.50;;;;;;5075706;28;20100;-88
2021/08/11 09:49:39;;;;;;;3.42;2.38;;;21.00;91.40;;;;;;5075508;28;20066;-89
2021/08/11 09:52:08;;;;;;;2.70;2.20;;;21.10;91.40;;;;;;5075009;28;20013;-89
2021/08/11 09:54:33;;;;;;;3.05;2.17;;;21.10;91.60;;;;;;5058094;28;20031;-87
2021/08/11 09:56:59;;;;;;;3.97;2.15;;;21.20;91.40;;;;;;5057928;28;20020;-90
2021/08/11 09:59:25;;;;;;;3.50;2.25;;;21.30;91.40;;;;;;5075901;28;20385;-87
2021/08/11 10:01:51;;;;;;;2.35;2.00;;;21.50;91.30;;;;;;5074920;28;20525;-85
2021/08/11 10:04:18;;;;;;;2.85;2.20;;;21.60;91.10;;;;;;5075876;28;20074;-87
2021/08/11 10:06:46;;;;;;;2.13;1.75;;;21.60;91.10;;;;;;5075308;28;20381;-86
2021/08/11 10:09:18;;;;;;;3.22;2.20;;;21.70;91.10;;;;;;5075005;28;20086;-88
2021/08/11 10:11:47;;;;;;;2.95;2.08;;;21.70;91.20;;;;;;5074864;28;20076;-88
2021/08/11 10:14:14;;;;;;;2.50;1.80;;;21.70;91.10;;;;;;5074948;28;20024;-87
2021/08/11 10:16:41;;;;;;;2.50;2.00;;;21.70;91.20;;;;;;5074399;28;20029;-87
2021/08/11 10:19:08;;;;;;;3.05;2.33;;;21.60;91.20;;;;;;5075787;28;20529;-87
2021/08/11 10:21:39;;;;;;;2.35;1.80;;;21.60;91.20;;;;;;5074555;28;20053;-87
2021/08/11 10:24:09;;;;;;;3.05;2.00;;;21.60;91.20;;;;;;5074646;28;20017;-86
2021/08/11 10:26:34;;;;;;;1.95;1.70;;;21.60;91.20;;;;;;5076202;28;20077;-86
2021/08/11 10:29:00;;;;;;;2.08;1.88;;;21.50;91.30;;;;;;5074996;28;20111;-86
2021/08/11 10:31:26;;;;;;;2.10;1.85;;;21.40;91.40;;;;;;5074839;28;20020;-86
2021/08/11 10:33:52;;;;;;;2.00;1.60;;;21.50;91.40;;;;;;5074831;28;20384;-88
2021/08/11 10:36:19;;;;;;;1.70;1.60;;;21.80;91.30;;;;;;5075093;28;20024;-86
2021/08/11 10:38:46;;;;;;;1.67;1.58;;;21.90;91.10;;;;;;5074583;28;20017;-86
2021/08/11 10:41:12;;;;;;;2.30;1.67;;;22.10;90.90;;;;;;5075024;28;20028;-86
2021/08/11 10:43:39;;;;;;;1.90;1.48;;;22.10;90.90;;;;;;5074881;28;20016;-86
2021/08/11 10:46:08;;;;;;;2.47;1.83;;;22.00;90.90;;;;;;5074365;28;20091;-87
2021/08/11 10:48:35;;;;;;;2.58;1.88;;;22.00;90.90;;;;;;5074345;28;20024;-86
2021/08/11 10:51:01;;;;;;;2.05;1.73;;;22.10;90.90;;;;;;5056815;28;20557;-86
2021/08/11 10:53:27;;;;;;;1.40;1.30;;;22.20;90.90;;;;;;5074072;28;20029;-86
2021/08/11 10:55:54;;;;;;;1.92;1.67;;;22.30;90.70;;;;;;5074147;28;20036;-86
2021/08/11 10:58:38;;;;;;;1.85;1.60;;;22.30;90.60;;;;;;5073938;28;20043;-87
2021/08/11 11:01:26;;;;;;;1.98;1.63;;;22.40;90.70;;;;;;5073865;28;20042;-87
2021/08/11 11:03:52;;;;;;;1.38;1.30;;;22.40;90.60;;;;;;5073951;28;20485;-86
2021/08/11 11:06:19;;;;;;;1.50;1.40;;;22.40;90.60;;;;;;5073839;28;20056;-85
2021/08/11 11:08:45;;;;;;;1.60;1.27;;;22.60;90.60;;;;;;5056079;28;20038;-86
2021/08/11 11:11:31;;;;;;;1.75;1.63;;;22.60;90.50;;;;;;5074436;28;20025;-86
2021/08/11 11:13:57;;;;;;;1.42;1.30;;;22.70;90.50;;;;;;5056311;28;20027;-86
2021/08/11 11:17:02;;;;;;;2.42;1.88;;;22.80;90.50;;;;;;5078264;28;20020;-86
2021/08/11 11:19:28;;;;;;;2.13;1.67;;;22.90;90.50;;;;;;5060517;28;20021;-86
2021/08/11 11:21:54;;;;;;;1.65;1.55;;;23.00;90.30;;;;;;5080667;28;20044;-86
2021/08/11 11:24:48;;;;;;;1.38;1.17;;;23.10;90.40;;;;;;5078150;28;20532;-86
2021/08/11 11:27:39;;;;;;;1.42;1.33;;;23.30;90.50;;;;;;5078158;28;20020;-86
2021/08/11 11:30:27;;;;;;;1.83;1.50;;;23.40;90.40;;;;;;5078078;28;20023;-87
2021/08/11 11:32:54;;;;;;;1.63;1.52;;;23.60;90.40;;;;;;5068408;28;20086;-87
2021/08/11 11:35:24;;;;;;;1.77;1.25;;;23.60;90.30;;;;;;5078166;28;20112;-88
2021/08/11 11:38:10;;;;;;;1.63;1.40;;;23.70;90.20;;;;;;5078658;28;20020;-88
2021/08/11 11:40:59;;;;;;;1.88;1.60;;;23.70;90.20;;;;;;5077711;28;20033;-87
2021/08/11 11:43:33;;;;;;;1.70;1.40;;;23.60;90.10;;;;;;5076559;28;20381;-85
2021/08/11 11:46:01;;;;;;;2.63;1.50;;;23.40;90.20;;;;;;5059395;28;20044;-85
2021/08/11 11:48:26;;;;;;;1.50;1.40;;;23.30;90.30;;;;;;5077192;28;20050;-87
2021/08/11 11:51:03;;;;;;;1.50;1.40;;;23.30;90.20;;;;;;5077119;28;20017;-85
2021/08/11 11:53:32;;;;;;;1.38;1.10;;;23.30;90.20;;;;;;5077101;28;20032;-86
2021/08/11 11:56:07;;;;;;;2.00;1.80;;;23.60;90.10;;;;;;5077033;28;20025;-84
2021/08/11 11:58:47;;;;;;;1.60;1.40;;;23.70;89.80;;;;;;5076574;28;20068;-84
2021/08/11 12:01:14;;;;;;;2.10;1.65;;;23.60;89.40;;;;;;5077110;28;20070;-86
2021/08/11 12:03:46;;;;;;;2.03;1.40;;;23.80;89.60;;;;;;5077081;28;20103;-85
2021/08/11 12:06:12;;;;;;;1.70;1.60;;;24.60;88.60;;;;;;5077248;28;20381;-86
2021/08/11 12:08:38;;;;;;;1.70;1.60;;;25.60;86.90;;;;;;5077455;28;20021;-86
2021/08/11 12:11:12;;;;;;;1.50;1.40;;;26.30;85.70;;;;;;5058380;28;20025;-86
2021/08/11 12:13:38;;;;;;;1.83;1.55;;;26.50;85.00;;;;;;5059672;28;20474;-86
2021/08/11 12:16:04;;;;;;;1.95;1.63;;;26.50;85.20;;;;;;5059448;28;20062;-87
2021/08/11 12:18:30;;;;;;;2.05;1.58;;;26.50;85.40;;;;;;5076597;28;20024;-85
2021/08/11 12:21:01;;;;;;;1.40;1.30;;;26.60;85.40;;;;;;5059105;28;20189;-81
2021/08/11 12:23:29;;;;;;;1.83;1.42;;;26.80;85.30;;;;;;5060039;28;20036;-87
2021/08/11 12:25:57;;;;;;;1.25;1.20;;;26.90;85.20;;;;;;5076285;28;20029;-87
2021/08/11 12:28:25;;;;;;;1.95;1.58;;;26.70;85.40;;;;;;5076366;28;20059;-84
2021/08/11 12:30:56;;;;;;;1.33;1.23;;;26.30;85.80;;;;;;5076297;28;20025;-85
2021/08/11 12:33:23;;;;;;;1.58;1.42;;;25.90;86.60;;;;;;5075919;28;20466;-87
2021/08/11 12:35:51;;;;;;;1.58;1.45;;;26.00;87.30;;;;;;5076439;28;20036;-88
2021/08/11 12:38:34;;;;;;;1.20;1.10;;;26.10;86.80;;;;;;5076979;28;20020;-88
2021/08/11 12:41:20;;;;;;;1.60;1.40;;;26.10;87.10;;;;;;5058163;28;20093;-85
2021/08/11 12:43:47;;;;;;;1.08;0.98;;;26.10;87.00;;;;;;5076401;28;20036;-86
2021/08/11 12:46:13;;;;;;;1.92;1.45;;;25.90;87.30;;;;;;5076354;28;20015;-85
2021/08/11 12:48:39;;;;;;;1.50;1.40;;;25.90;87.40;;;;;;5076026;28;20388;-86
2021/08/11 12:51:22;;;;;;;1.83;1.70;;;25.80;87.20;;;;;;5076155;28;20099;-87
2021/08/11 12:54:03;;;;;;;1.33;1.23;;;25.70;87.30;;;;;;5058364;28;20024;-85